Airfield :







YOU CAN JOIN US ON...

 
LOGIN :

Register | Disclaimer

   EN    FR    IT 

 









Legend :    VFR   Marginal VFR   IFR   Intensive IFR   Very Intensive IFR
Visi :
Ceiling :
>= 8 km
>= 3000ft
5 to 8 km
1000 to 3000 ft
1500m to 5 km
500 to 1000 ft
800 to 1500m
200 to 500 ft
< 800m
< 200 ft
Symbols :   Thunderstorms  Fog  Heavy snow  Heavy precipitations  Wind > 20 kt






- Airport Elevation : 377 ft
- IATA code : YPS


CYPD - Port Hawkesbury

CURRENT METAR :
  • 151000Z AUTO 27010G15KT 250V310 9SM SCT013 BKN020 OVC029 17/16 A2998 RMK SLP153 DENSITY ALT 700FT

EXPIRED METARs :
  • 150900Z AUTO 28006KT 9SM BKN014 BKN035 17/16 A2996 RMK SLP147 DENSITY ALT 700FT
  • 150800Z AUTO 30008KT 9SM BKN010 BKN016 OVC036 17/17 A2995 RMK SLP144 DENSITY ALT 700FT

TAF N/A
CZQM FIR / North America



MET'MAP, your aeronautical weather chart ! - Copyright ORBIFLY December 2007 - Disclaimer

ORBIFLY MET'MAP TEAM :

Programming & Development : Alexandra Zaïnal
Original concept : Baudouin d'Aumeries
Technical & hardware support : Manuel Goepfert
Assistance : Marc-Olivier Méhu




SOURCES & CREDITS :

   NOAA